Terminal Aerodrome Forecast
Issued by NWS Portland, OR

Home | Current Version | Previous Version | Text Only | Print | Product List | Glossary On
Versions: 1 2 3 4 5 6 7 8 9 10 11 12 13 14 15 16 17
000
FTUS46 KPQR 260103 AAA
TAFEUG
TAF AMD
KEUG 260103Z 2601/2624 18013KT 6SM -SHRA BKN025 OVC035
      TEMPO 2601/2603 2SM BR OVC015
     FM260300 22007KT P6SM -RA SCT015 OVC025
     FM261800 24009KT P6SM -SHRA OVC025=

USA.gov is the U.S. government's official web portal to all federal, state and local government web resources and services.